Terminal Aerodrome Forecast
Issued by NWS

Home | Current Version | Previous Version | Text Only | Print | Product List | Glossary On
Versions: 1 2 3 4 5 6 7 8 9 10 11 12 13
000
FTUS46 KOTX 282326
TAFPUW
TAF
KPUW 282326Z 2900/2924 25009KT P6SM SKC
     FM290600 24004KT P6SM -SHRA SCT070 BKN150
     FM291000 26003KT P6SM FEW150
     FM291400 28003KT P6SM SCT020
     FM292000 30005KT P6SM FEW050=

USA.gov is the U.S. government's official web portal to all federal, state and local government web resources and services.